KSBY/SBY METAR and TAF weather

Enter ICAO airport designator
Station Type Date Time Source
KSBY METAR 2021/05/11 00:54 UTC NOAA

KSBY 110054Z 08003KT 10SM CLR 13/09 A3002 RMK AO2 SLP167 T01280089


Station Type Date Time Source
KSBY Decoded METAR 2021/05/11 00:54 UTC NOAA

SALISBURY-WICOMICO CTY REG, MD, United States (KSBY) 38-20N 075-30W 19M
May 10, 2021 - 08:54 PM EDT / 2021.05.11 0054 UTC
Wind: from the E (080 degrees) at 3 MPH (3 KT):0
Visibility: 10 mile(s):0
Sky conditions: clear
Temperature: 55.0 F (12.8 C)
Dew Point: 48.0 F (8.9 C)
Relative Humidity: 77%
Pressure (altimeter): 30.02 in. Hg (1016 hPa)
ob: KSBY 110054Z 08003KT 10SM CLR 13/09 A3002 RMK AO2 SLP167 T01280089
cycle: 1

Station Type Date Time Source
KSBY TAF 2021/05/10 18:39 UTC NOAA

TAF KSBY 101737Z 1018/1118 34008KT P6SM BKN050
FM102200 36005KT P6SM SCT080
FM110600 34005KT P6SM BKN100

Example: see airport list